LFKJLFKF

Guest
Details From LFKJ - Napoleon Bonaparte
To LFKF - Figari Sud Corse
Flight Number -
Tags decoded
Created
Modified
Stats Distance 71 nm / 132 km
Max Altitude 0 ft / 0 m
Waypoints 6
Social Downloads 0
Likes 0
Share VATSIM

Download

Looking for another format? Having issues loading an existing format? Contact us
Advertisement - Login to hide

Notes

Requested: LFKJ AJO GALDA MASAL PINAL FA LFKF

Route

LFKJ AJO GALDA MASAL FA LFKF

ID Type Via Altitude Latitude Longitude Leg Dist Tot Dist Heading (true) Name
O LFKJ APT - 0 ft / 0 m 41.92289˚ 8.79959˚ - 0 nm - Napoleon Bonaparte
AJO VOR - 0 ft / 0 m 41.77053˚ 8.77467˚ 9 nm 9 nm 187° / 187° AJACCIO VOR-DME
GALDA FIX - 0 ft / 0 m 41.42897˚ 8.87942˚ 21 nm 30 nm 167° / 167° -
MASAL FIX - 0 ft / 0 m 41.46800˚ 9.36753˚ 22 nm 52 nm 84° / 84° -
FA NDB - 0 ft / 0 m 41.60139˚ 9.25333˚ 9 nm 61 nm 327° / 327° Figari Sud Corse NDB
O LFKF APT - 0 ft / 0 m 41.50206˚ 9.09696˚ 9 nm 71 nm 230° / 230° Figari Sud Corse

Altitude Profile

Advertisement - Login to hide

LFKJ

Details ICAO LFKJ (AJA)
Name Napoleon Bonaparte
Region France
Timezone Europe/Paris (UTC+1.0)
Stats Elevation 18 ft / 5 m (AMSL)
Location 41.922886° 8.799587°
Runways 2
Magnetic Variation 2.330° E

METAR

LFKJ 171630Z AUTO 03006KT CAVOK 09/M01 Q1019 NOSIG

Decode

TAF

TAF LFKJ 171400Z 1715/1815 VRB05KT 9999 FEW040 SCT160

Decode

Departure Runways

ID Width Length Bearing (true) Bearing (mag) Surface Threshold Offset Overrun Length
02 180 ft / 55 m 7,899 ft / 2,408 m 24.94° 22.61° Asphalt 0 ft / 0 m 164 ft / 50 m
10 98 ft / 30 m 3,447 ft / 1,051 m 94.35° 92.02° Concrete 0 ft / 0 m 164 ft / 50 m
20 180 ft / 55 m 7,899 ft / 2,408 m 204.95° 202.62° Asphalt 745 ft / 227 m 230 ft / 70 m
28 98 ft / 30 m 3,447 ft / 1,051 m 274.36° 272.03° Concrete 213 ft / 65 m 0 ft / 0 m

LFKF

Details ICAO LFKF (FSC)
Name Figari Sud Corse
Region France
Timezone Europe/Paris (UTC+1.0)
Stats Elevation 87 ft / 27 m (AMSL)
Location 41.502064° 9.096960°
Runways 1
Magnetic Variation 2.379° E

METAR

LFKF 171630Z AUTO 03004KT CAVOK 05/01 Q1019 TEMPO 06015KT 4000 SHRA SCT025TCU

Decode

TAF

TAF LFKF 171400Z 1715/1815 VRB05KT 9999 FEW030 SCT060 BKN130 PROB30 TEMPO 1715/1718 06015KT 4000 SHRA SCT025TCU

Decode

Destination Runways

ID Width Length Bearing (true) Bearing (mag) Surface Threshold Offset Overrun Length
05 148 ft / 45 m 8,131 ft / 2,478 m 47.42° 45.04° Asphalt 0 ft / 0 m 0 ft / 0 m
23 148 ft / 45 m 8,131 ft / 2,478 m 227.44° 225.06° Asphalt 0 ft / 0 m 0 ft / 0 m

Approach Navaids

Runway Type Ident Frequency Range Bearing (true) Bearing (mag) Slope Elevation
23 Localiser GR 110.50 MHz 27 nm / 50 km 229.00° 226.62° - 87 ft / 27 m (AMSL)
23 Glidescope GR 110.50 MHz 27 nm / 50 km 229.00° 226.62° 3.50° 87 ft / 27 m (AMSL)
23 DME GR 110.50 MHz 18 nm / 33 km - - - 131 ft / 40 m (AMSL)

Popular Alternatives